Time;durP1;ratioP1;P1;durP2;ratioP2;P2;SDS_P1;SDS_P2;PMS_P1;PMS_P2;Temp;Humidity;BMP_temperature;BMP_pressure;BME280_temperature;BME280_humidity;BME280_pressure;Samples;Min_cycle;Max_cycle;Signal;HPM_P1;HPM_P2
2021/04/28 00:00:37;;;;;;;5.27;2.80;;;;;;;0.21;77.69;100614.97;4970148;28;20578;-79
2021/04/28 00:03:06;;;;;;;5.70;2.70;;;;;;;0.13;78.51;100613.94;4955440;28;20102;-79
2021/04/28 00:05:33;;;;;;;6.30;2.63;;;;;;;0.19;77.86;100612.34;4955179;28;20042;-79
2021/04/28 00:07:59;;;;;;;5.27;2.83;;;;;;;0.15;77.54;100610.53;4957307;28;20488;-83
2021/04/28 00:10:28;;;;;;;4.33;2.50;;;;;;;0.00;78.52;100610.22;4938637;28;20042;-81
2021/04/28 00:12:54;;;;;;;5.63;2.90;;;;;;;0.04;78.18;100609.44;4940389;28;20065;-79
2021/04/28 00:15:23;;;;;;;4.33;2.60;;;;;;;0.03;78.17;100601.63;4940970;28;20051;-81
2021/04/28 00:17:50;;;;;;;5.00;3.03;;;;;;;-0.11;79.29;100603.91;4953826;28;20063;-82
2021/04/28 00:20:18;;;;;;;7.17;2.93;;;;;;;-0.11;79.12;100598.72;4965557;28;20045;-80
2021/04/28 00:22:44;;;;;;;4.07;3.03;;;;;;;-0.15;79.73;100605.56;4939326;28;20039;-79
2021/04/28 00:25:13;;;;;;;8.77;3.20;;;;;;;-0.16;79.28;100603.81;4957172;28;20050;-81
2021/04/28 00:27:40;;;;;;;7.73;3.40;;;;;;;-0.17;79.76;100602.06;4951867;28;20051;-79
2021/04/28 00:30:08;;;;;;;5.77;2.80;;;;;;;-0.13;79.94;100600.41;4964538;28;20066;-80
2021/04/28 00:32:35;;;;;;;6.13;3.00;;;;;;;-0.28;79.69;100599.22;4955749;28;21425;-80
2021/04/28 00:35:04;;;;;;;4.63;2.93;;;;;;;-0.37;80.11;100596.41;4977697;28;20094;-81
2021/04/28 00:37:30;;;;;;;4.53;2.70;;;;;;;-0.34;80.87;100604.28;4971512;28;20047;-81
2021/04/28 00:39:56;;;;;;;6.60;2.90;;;;;;;-0.36;80.79;100586.91;4935133;28;20060;-80
2021/04/28 00:42:22;;;;;;;7.13;3.80;;;;;;;-0.26;80.39;100594.06;4938181;28;20520;-84
2021/04/28 00:44:48;;;;;;;4.50;3.03;;;;;;;-0.33;80.75;100587.00;4954773;28;20031;-81
2021/04/28 00:47:15;;;;;;;4.77;3.43;;;;;;;-0.29;80.28;100588.81;4937257;28;20560;-79
2021/04/28 00:49:41;;;;;;;6.53;3.33;;;;;;;-0.36;80.17;100597.28;4954655;28;20101;-80
2021/04/28 00:52:07;;;;;;;4.97;2.87;;;;;;;-0.42;79.69;100589.34;4954912;28;20043;-79
2021/04/28 00:54:35;;;;;;;5.77;3.60;;;;;;;-0.55;80.67;100593.41;4955647;28;20047;-80
2021/04/28 00:57:03;;;;;;;6.40;3.60;;;;;;;-0.58;80.98;100583.84;4944714;28;20039;-79
2021/04/28 00:59:29;;;;;;;6.43;3.77;;;;;;;-0.57;81.04;100580.41;4970426;28;20046;-80
2021/04/28 01:01:55;;;;;;;5.03;3.93;;;;;;;-0.52;80.85;100577.91;4955416;28;20066;-79
2021/04/28 01:04:22;;;;;;;6.33;3.53;;;;;;;-0.52;80.42;100577.03;4972009;28;20051;-80
2021/04/28 01:06:49;;;;;;;5.23;3.90;;;;;;;-0.52;80.75;100580.50;4956075;28;20046;-79
2021/04/28 01:09:17;;;;;;;4.17;2.97;;;;;;;-0.58;80.86;100575.19;4937596;28;20040;-78
2021/04/28 01:11:43;;;;;;;7.80;3.30;;;;;;;-0.54;81.69;100581.31;4971525;28;20039;-82
2021/04/28 01:14:10;;;;;;;5.43;3.57;;;;;;;-0.51;81.84;100577.06;4939560;28;20113;-78
2021/04/28 01:16:36;;;;;;;6.90;3.10;;;;;;;-0.50;81.78;100570.19;4939144;28;20098;-79
2021/04/28 01:19:04;;;;;;;6.57;3.60;;;;;;;-0.60;81.66;100569.06;4968625;28;20584;-83
2021/04/28 01:21:31;;;;;;;4.67;3.37;;;;;;;-0.69;82.45;100566.25;4955057;28;20054;-79
2021/04/28 01:23:57;;;;;;;6.93;3.53;;;;;;;-0.75;82.04;100567.00;4953831;28;20043;-82
2021/04/28 01:26:25;;;;;;;5.37;3.23;;;;;;;-0.80;82.25;100575.50;4952790;28;20046;-84
2021/04/28 01:28:52;;;;;;;4.73;3.57;;;;;;;-0.77;82.21;100566.06;4955451;28;20436;-81
2021/04/28 01:31:20;;;;;;;5.07;3.77;;;;;;;-0.80;82.31;100563.41;4955338;28;20047;-80
2021/04/28 01:33:48;;;;;;;6.77;3.70;;;;;;;-0.75;81.94;100564.41;4939364;28;20057;-80
2021/04/28 01:36:27;;;;;;;7.07;4.10;;;;;;;-0.75;82.23;100551.44;4968942;28;20054;-79
2021/04/28 01:38:56;;;;;;;8.53;4.27;;;;;;;-0.65;82.10;100557.72;4975290;28;20046;-80
2021/04/28 01:41:24;;;;;;;6.50;3.67;;;;;;;-0.77;81.16;100560.88;4935645;29;20105;-81
2021/04/28 01:43:51;;;;;;;5.47;3.60;;;;;;;-0.73;81.49;100552.34;4954769;28;20043;-81
2021/04/28 01:46:17;;;;;;;5.83;4.00;;;;;;;-0.83;81.63;100552.97;4936474;28;20867;-79
2021/04/28 01:48:45;;;;;;;8.27;3.73;;;;;;;-1.00;81.62;100550.00;4970369;28;20046;-79
2021/04/28 01:51:12;;;;;;;8.60;3.97;;;;;;;-1.04;82.96;100544.66;4932355;28;20047;-82
2021/04/28 01:53:42;;;;;;;7.37;3.80;;;;;;;-1.08;82.08;100542.84;4955557;28;20043;-81
2021/04/28 01:56:09;;;;;;;7.57;4.53;;;;;;;-1.22;83.21;100540.78;4971517;28;20039;-84
2021/04/28 01:58:37;;;;;;;5.83;3.83;;;;;;;-1.21;82.85;100541.66;4950240;29;20036;-79
2021/04/28 02:01:09;;;;;;;7.53;4.30;;;;;;;-1.25;83.06;100537.25;4951917;28;20078;-80
2021/04/28 02:03:35;;;;;;;7.20;3.90;;;;;;;-1.35;83.24;100543.03;4950431;28;20519;-81
2021/04/28 02:06:04;;;;;;;8.77;4.57;;;;;;;-1.37;84.01;100537.81;4954677;28;20122;-79
2021/04/28 02:08:30;;;;;;;7.10;4.33;;;;;;;-1.25;83.94;100535.53;4952191;29;20192;-79
2021/04/28 02:11:00;;;;;;;6.97;3.80;;;;;;;-1.30;83.54;100537.13;4967696;28;20613;-82
2021/04/28 02:13:27;;;;;;;9.13;4.80;;;;;;;-1.16;83.58;100521.94;4939048;28;20054;-79
2021/04/28 02:15:53;;;;;;;6.37;3.97;;;;;;;-1.21;83.46;100523.53;4954505;28;20042;-82
2021/04/28 02:18:20;;;;;;;8.40;4.60;;;;;;;-1.12;83.20;100526.34;4961951;28;20047;-78
2021/04/28 02:20:47;;;;;;;7.73;4.03;;;;;;;-1.35;84.00;100522.28;4970450;28;20105;-85
2021/04/28 02:23:14;;;;;;;7.67;4.27;;;;;;;-1.21;84.96;100516.63;4963909;28;20551;-82
2021/04/28 02:25:40;;;;;;;6.23;4.03;;;;;;;-1.35;83.80;100525.75;4939652;28;20086;-79
2021/04/28 02:28:06;;;;;;;8.87;5.07;;;;;;;-1.32;85.30;100512.03;4970788;28;20042;-79
2021/04/28 02:30:34;;;;;;;8.83;4.40;;;;;;;-1.39;85.09;100512.69;4948018;28;20389;-80
2021/04/28 02:33:01;;;;;;;6.67;4.33;;;;;;;-1.30;84.44;100505.16;4954556;28;20062;-78
2021/04/28 02:35:27;;;;;;;8.00;4.27;;;;;;;-1.28;84.88;100503.47;4951723;28;20050;-81
2021/04/28 02:37:59;;;;;;;6.33;4.30;;;;;;;-1.32;85.21;100501.66;4939302;28;20098;-83
2021/04/28 02:40:26;;;;;;;8.17;4.87;;;;;;;-1.46;85.62;100509.94;4970214;28;20054;-79
2021/04/28 02:42:52;;;;;;;9.03;4.73;;;;;;;-1.46;85.17;100503.88;4955052;28;20051;-82
2021/04/28 02:45:20;;;;;;;6.93;4.10;;;;;;;-1.47;84.94;100503.00;4954479;28;20109;-79
2021/04/28 02:47:47;;;;;;;6.57;4.67;;;;;;;-1.49;85.29;100496.91;4935892;28;20114;-79
2021/04/28 02:50:18;;;;;;;7.77;5.13;;;;;;;-1.50;85.18;100502.94;4971016;28;20047;-84
2021/04/28 02:52:46;;;;;;;8.00;5.20;;;;;;;-1.46;84.46;100489.22;4939167;28;20050;-84
2021/04/28 02:55:13;;;;;;;8.63;5.40;;;;;;;-1.29;84.84;100487.03;4922526;29;20075;-81
2021/04/28 02:57:40;;;;;;;7.37;4.50;;;;;;;-1.43;84.15;100491.00;4951041;28;20047;-80
2021/04/28 03:00:09;;;;;;;7.13;4.43;;;;;;;-1.52;85.30;100483.88;4956426;28;20039;-81
2021/04/28 03:02:36;;;;;;;9.23;4.50;;;;;;;-1.42;85.18;100483.28;4954347;28;20054;-79
2021/04/28 03:05:06;;;;;;;8.17;4.70;;;;;;;-1.45;85.53;100484.91;4954795;28;20047;-81
2021/04/28 03:07:32;;;;;;;7.83;4.33;;;;;;;-1.48;85.10;100484.84;4953817;28;20038;-84
2021/04/28 03:09:59;;;;;;;7.77;4.30;;;;;;;-1.55;86.07;100494.16;4964161;28;20415;-83
2021/04/28 03:12:26;;;;;;;8.80;6.03;;;;;;;-1.66;86.58;100484.38;4922337;28;20054;-80
2021/04/28 03:14:55;;;;;;;7.60;4.73;;;;;;;-1.62;86.36;100479.31;4949730;28;20087;-80
2021/04/28 03:17:21;;;;;;;5.83;4.33;;;;;;;-1.50;87.25;100479.63;4938280;28;20047;-82
2021/04/28 03:19:54;;;;;;;8.53;4.23;;;;;;;-1.57;87.00;100469.94;4953778;28;20030;-79
2021/04/28 03:22:20;;;;;;;7.93;4.30;;;;;;;-1.36;87.59;100479.94;4948035;28;20047;-84
2021/04/28 03:24:47;;;;;;;7.37;4.60;;;;;;;-1.52;87.57;100480.41;4929993;29;20452;-82
2021/04/28 03:27:15;;;;;;;6.57;3.90;;;;;;;-1.51;88.68;100471.81;4958096;28;20051;-84
2021/04/28 03:29:41;;;;;;;7.23;3.93;;;;;;;-1.51;88.72;100477.88;4957565;28;20035;-82
2021/04/28 03:32:08;;;;;;;8.57;4.57;;;;;;;-1.39;88.68;100468.66;4955591;28;20090;-81
2021/04/28 03:34:35;;;;;;;6.60;3.90;;;;;;;-1.49;89.39;100475.31;4957143;28;20046;-82
2021/04/28 03:37:03;;;;;;;6.53;4.37;;;;;;;-1.56;89.02;100476.88;4942409;28;20043;-82
2021/04/28 03:39:30;;;;;;;6.80;4.50;;;;;;;-1.55;89.09;100467.38;4934828;28;20039;-80
2021/04/28 03:41:57;;;;;;;7.30;4.97;;;;;;;-1.51;89.50;100475.28;4942330;28;20050;-80
2021/04/28 03:44:24;;;;;;;6.53;4.13;;;;;;;-1.63;88.86;100472.38;4937043;28;20050;-81
2021/04/28 03:46:51;;;;;;;7.83;4.60;;;;;;;-1.58;89.24;100475.97;4956131;28;20042;-80
2021/04/28 03:49:17;;;;;;;7.23;4.50;;;;;;;-1.46;90.45;100467.63;4959829;28;20138;-79
2021/04/28 03:51:44;;;;;;;6.43;4.97;;;;;;;-1.50;90.33;100471.84;4957399;28;20086;-83
2021/04/28 03:54:11;;;;;;;7.47;4.43;;;;;;;-1.51;90.59;100471.81;4951638;28;20093;-80
2021/04/28 03:56:38;;;;;;;6.83;4.77;;;;;;;-1.57;90.06;100469.06;4974914;28;20047;-85
2021/04/28 03:59:06;;;;;;;7.20;4.37;;;;;;;-1.62;90.48;100475.84;4973839;28;20047;-86
2021/04/28 04:01:33;;;;;;;8.10;5.00;;;;;;;-1.56;90.06;100461.34;4951965;29;20047;-81
2021/04/28 04:03:59;;;;;;;6.90;4.43;;;;;;;-1.48;90.74;100465.00;4944969;28;20110;-81
2021/04/28 04:06:25;;;;;;;9.70;5.30;;;;;;;-1.57;89.57;100463.91;4954183;29;20047;-79
2021/04/28 04:08:52;;;;;;;7.70;4.90;;;;;;;-1.64;90.01;100478.41;4970192;28;20512;-83
2021/04/28 04:11:18;;;;;;;8.30;5.67;;;;;;;-1.34;89.89;100462.75;4955557;28;20047;-85
2021/04/28 04:13:44;;;;;;;7.23;5.10;;;;;;;-1.32;89.00;100467.97;4939343;28;21488;-85
2021/04/28 04:16:10;;;;;;;7.03;5.00;;;;;;;-1.33;89.43;100464.50;4952786;28;20057;-82
2021/04/28 04:18:36;;;;;;;8.80;5.30;;;;;;;-1.35;89.86;100462.69;4941675;28;20070;-84
2021/04/28 04:21:03;;;;;;;9.93;5.60;;;;;;;-1.32;89.28;100455.88;4955988;28;20386;-83
2021/04/28 04:23:30;;;;;;;11.10;5.27;;;;;;;-1.41;89.45;100468.63;4954569;28;20043;-80
2021/04/28 04:25:56;;;;;;;9.33;4.63;;;;;;;-1.29;88.96;100455.94;4958226;28;20072;-82
2021/04/28 04:28:22;;;;;;;9.43;5.83;;;;;;;-1.16;88.88;100468.38;4951806;28;20042;-84
2021/04/28 04:30:50;;;;;;;11.33;6.07;;;;;;;-1.16;88.88;100457.13;4966901;28;20046;-82
2021/04/28 04:33:17;;;;;;;11.80;5.60;;;;;;;-1.16;88.39;100459.72;4949613;28;20043;-85
2021/04/28 04:35:44;;;;;;;8.17;5.40;;;;;;;-1.20;87.73;100457.88;4971968;28;20043;-81
2021/04/28 04:38:11;;;;;;;8.13;5.07;;;;;;;-1.18;88.06;100462.28;4953867;28;20038;-85
2021/04/28 04:40:38;;;;;;;11.60;5.97;;;;;;;-1.06;88.06;100455.63;4961206;28;20463;-83
2021/04/28 04:43:04;;;;;;;11.40;5.60;;;;;;;-0.97;87.75;100456.69;4937720;29;20097;-83
2021/04/28 04:45:34;;;;;;;9.90;5.73;;;;;;;-0.93;87.26;100455.03;4944448;28;20523;-82
2021/04/28 04:48:05;;;;;;;8.37;5.90;;;;;;;-0.77;87.47;100457.13;4966799;28;20052;-82
2021/04/28 04:50:32;;;;;;;7.57;5.20;;;;;;;-0.67;86.95;100446.13;4988298;28;20035;-81
2021/04/28 04:52:59;;;;;;;10.03;5.67;;;;;;;-0.76;86.76;100458.88;4949606;28;20101;-80
2021/04/28 04:55:25;;;;;;;6.73;4.90;;;;;;;-0.73;87.29;100461.56;4950285;28;20040;-80
2021/04/28 04:57:52;;;;;;;8.03;5.77;;;;;;;-0.58;85.71;100458.44;4966961;28;20054;-80
2021/04/28 05:00:19;;;;;;;13.27;8.07;;;;;;;-0.58;86.46;100459.31;4945800;29;20382;-82
2021/04/28 05:02:45;;;;;;;8.90;5.87;;;;;;;-0.40;85.16;100458.81;4962704;28;20042;-83
2021/04/28 05:05:12;;;;;;;11.40;5.67;;;;;;;-0.30;85.35;100459.88;4963988;28;20378;-84
2021/04/28 05:07:38;;;;;;;9.03;5.70;;;;;;;-0.26;85.11;100455.59;4956485;28;20047;-79
2021/04/28 05:10:07;;;;;;;10.57;6.13;;;;;;;-0.14;85.28;100458.44;4948722;28;20038;-78
2021/04/28 05:12:33;;;;;;;10.73;6.20;;;;;;;-0.05;84.40;100451.69;4956732;28;20054;-79
2021/04/28 05:14:59;;;;;;;24.27;6.13;;;;;;;0.14;83.02;100452.03;4956854;28;20046;-78
2021/04/28 05:17:25;;;;;;;11.03;6.33;;;;;;;0.11;83.30;100452.00;4992093;28;20031;-80
2021/04/28 05:19:52;;;;;;;10.90;6.23;;;;;;;0.25;82.77;100446.22;4970202;28;20039;-77
2021/04/28 05:22:23;;;;;;;10.27;6.50;;;;;;;0.53;82.71;100451.88;4964853;28;20042;-81
2021/04/28 05:24:49;;;;;;;11.23;6.13;;;;;;;0.74;81.13;100449.59;4953182;28;20525;-80
2021/04/28 05:27:15;;;;;;;8.53;6.00;;;;;;;0.84;79.01;100440.22;4956905;28;20049;-79
2021/04/28 05:29:42;;;;;;;9.50;6.37;;;;;;;1.24;75.39;100441.66;4963805;28;20396;-80
2021/04/28 05:32:08;;;;;;;10.10;6.17;;;;;;;1.34;76.25;100440.06;4961812;28;20117;-83
2021/04/28 05:34:35;;;;;;;12.47;6.33;;;;;;;1.38;74.51;100440.13;4936430;29;20101;-79
2021/04/28 05:37:04;;;;;;;10.20;7.27;;;;;;;1.55;74.59;100440.34;4984697;28;20047;-78
2021/04/28 05:39:33;;;;;;;10.93;6.57;;;;;;;1.59;73.17;100441.25;4953576;28;20035;-78
2021/04/28 05:41:59;;;;;;;9.43;6.43;;;;;;;1.95;70.92;100439.09;4968553;28;20039;-81
2021/04/28 05:44:26;;;;;;;11.13;7.13;;;;;;;1.99;70.37;100437.38;4959838;28;20047;-79
2021/04/28 05:46:52;;;;;;;10.87;7.13;;;;;;;2.48;68.25;100437.84;5035780;23;20050;-84
2021/04/28 05:49:19;;;;;;;13.13;7.73;;;;;;;2.69;68.39;100432.84;4973049;28;20038;-80
2021/04/28 05:51:45;;;;;;;12.13;7.03;;;;;;;2.96;68.35;100424.31;4970131;28;20049;-81
2021/04/28 05:54:11;;;;;;;11.10;6.70;;;;;;;3.41;66.40;100417.59;4960361;28;20046;-83
2021/04/28 05:56:39;;;;;;;9.57;6.23;;;;;;;3.71;64.52;100424.72;4961813;28;20050;-83
2021/04/28 05:59:05;;;;;;;10.63;6.73;;;;;;;3.77;63.82;100419.47;4968353;28;20039;-81
2021/04/28 06:01:31;;;;;;;10.10;6.20;;;;;;;3.96;60.68;100420.44;4952187;28;20065;-83
2021/04/28 06:03:58;;;;;;;9.90;6.47;;;;;;;3.78;63.61;100416.00;4970241;28;20066;-83
2021/04/28 06:06:25;;;;;;;8.67;6.13;;;;;;;3.68;63.29;100424.69;4977041;28;20042;-83
2021/04/28 06:08:51;;;;;;;10.83;6.60;;;;;;;3.74;63.66;100418.59;4957573;28;20299;-84
2021/04/28 06:11:17;;;;;;;9.60;6.40;;;;;;;3.71;63.35;100424.72;4997019;28;20046;-79
2021/04/28 06:13:44;;;;;;;11.93;6.93;;;;;;;3.99;63.03;100415.19;4989484;28;20080;-80
2021/04/28 06:16:11;;;;;;;13.33;6.80;;;;;;;4.15;62.39;100410.88;4967051;28;20042;-83
2021/04/28 06:18:37;;;;;;;8.27;6.13;;;;;;;4.67;62.32;100413.50;4997863;28;20042;-83
2021/04/28 06:21:05;;;;;;;9.63;6.30;;;;;;;6.62;53.92;100404.81;4974811;28;20046;-83
2021/04/28 06:23:33;;;;;;;10.70;7.10;;;;;;;8.19;49.38;100408.25;4972543;28;20113;-83
2021/04/28 06:25:59;;;;;;;9.53;6.07;;;;;;;8.91;46.41;100399.22;4970506;28;20412;-84
2021/04/28 06:28:26;;;;;;;11.23;7.20;;;;;;;10.35;45.16;100389.19;4953874;28;20108;-83
2021/04/28 06:30:52;;;;;;;9.40;5.83;;;;;;;10.97;43.86;100389.38;4973787;28;20038;-81
2021/04/28 06:33:18;;;;;;;9.07;6.33;;;;;;;11.22;41.24;100383.44;4974435;28;20047;-82
2021/04/28 06:35:44;;;;;;;13.80;7.95;;;;;;;11.08;40.78;100383.78;4958321;28;20050;-83
2021/04/28 06:38:46;;;;;;;12.55;7.72;;;;;;;11.14;41.84;100381.00;4958009;28;20035;-85
2021/04/28 06:41:37;;;;;;;11.50;7.43;;;;;;;9.50;43.40;100383.13;4971348;28;20046;-84
2021/04/28 06:49:33;;;;;;;;;;;;;;;;;;;;;
2021/04/28 06:52:42;;;;;;;12.03;8.77;;;;;;;9.07;44.75;100391.00;4933715;28;20169;-82
2021/04/28 06:55:50;;;;;;;13.13;8.40;;;;;;;8.98;43.84;100386.78;4969572;28;20050;-84
2021/04/28 06:58:16;;;;;;;12.20;8.63;;;;;;;9.19;45.92;100386.38;4961519;28;20520;-85
2021/04/28 07:00:43;;;;;;;12.53;8.53;;;;;;;9.07;45.14;100380.47;4962944;28;20069;-82
2021/04/28 07:03:09;;;;;;;11.87;8.37;;;;;;;9.18;44.89;100384.66;4960600;28;20538;-84
2021/04/28 07:05:36;;;;;;;11.77;7.80;;;;;;;9.24;43.85;100384.50;4977896;28;20097;-83
2021/04/28 07:08:02;;;;;;;11.23;8.23;;;;;;;9.39;43.40;100379.84;4973764;28;20042;-82
2021/04/28 07:10:29;;;;;;;12.37;7.83;;;;;;;9.69;46.00;100373.94;4959114;28;20049;-81
2021/04/28 07:12:55;;;;;;;12.70;8.50;;;;;;;9.46;43.49;100377.06;4989440;28;20046;-80
2021/04/28 07:15:21;;;;;;;11.63;8.70;;;;;;;9.70;45.24;100372.19;4988356;28;20703;-81
2021/04/28 07:17:48;;;;;;;12.68;7.53;;;;;;;9.69;43.99;100375.72;4959831;28;20050;-81
2021/04/28 07:20:15;;;;;;;13.13;8.82;;;;;;;10.01;44.52;100373.25;4959286;28;20043;-81
2021/04/28 07:22:42;;;;;;;13.50;9.18;;;;;;;10.00;44.21;100374.13;4966507;28;20050;-81
2021/04/28 07:25:09;;;;;;;15.15;9.32;;;;;;;9.42;44.29;100378.03;4979474;28;20073;-80
2021/04/28 07:27:35;;;;;;;11.02;8.65;;;;;;;9.88;46.13;100377.91;4989779;28;20144;-82
2021/04/28 07:30:04;;;;;;;12.80;8.75;;;;;;;9.92;44.74;100365.53;4957350;28;20103;-81
2021/04/28 07:32:30;;;;;;;14.43;8.68;;;;;;;9.83;45.26;100368.34;4982962;28;20100;-83
2021/04/28 07:34:56;;;;;;;11.63;8.82;;;;;;;9.99;43.76;100366.25;4963941;28;20507;-83
2021/04/28 07:37:22;;;;;;;14.40;8.77;;;;;;;10.20;44.61;100360.47;4991232;28;20047;-81
2021/04/28 07:39:48;;;;;;;13.10;8.45;;;;;;;10.47;42.92;100363.38;4984271;28;20045;-81
2021/04/28 07:42:15;;;;;;;13.00;9.38;;;;;;;10.90;44.94;100345.50;4976589;28;20618;-82
2021/04/28 07:44:41;;;;;;;14.02;8.43;;;;;;;11.20;42.29;100349.09;4962915;28;20061;-82
2021/04/28 07:47:07;;;;;;;12.35;8.10;;;;;;;11.15;40.97;100356.28;4955935;28;20108;-82
2021/04/28 07:49:33;;;;;;;14.75;8.90;;;;;;;10.82;39.89;100351.91;4976526;28;20106;-81
2021/04/28 07:52:00;;;;;;;12.00;8.45;;;;;;;11.11;41.88;100359.06;4981207;28;20053;-83
2021/04/28 07:54:27;;;;;;;13.88;8.32;;;;;;;11.24;41.36;100356.03;4986248;28;20392;-80
2021/04/28 07:56:54;;;;;;;13.77;8.55;;;;;;;11.02;40.20;100341.69;4974796;28;20042;-81
2021/04/28 07:59:21;;;;;;;13.32;8.77;;;;;;;11.01;40.06;100350.50;4976575;28;20125;-81
2021/04/28 08:01:49;;;;;;;15.00;9.00;;;;;;;11.43;44.52;100347.56;4978592;28;20149;-81
2021/04/28 08:04:16;;;;;;;13.20;9.13;;;;;;;11.10;40.74;100347.63;4956145;28;20077;-81
2021/04/28 08:06:42;;;;;;;12.73;8.23;;;;;;;11.17;41.85;100346.53;4995015;28;20085;-83
2021/04/28 08:09:08;;;;;;;11.52;9.00;;;;;;;11.65;42.76;100346.03;4973790;28;20050;-82
2021/04/28 08:11:35;;;;;;;12.40;8.90;;;;;;;11.77;39.82;100337.75;4960827;28;20655;-82
2021/04/28 08:14:01;;;;;;;13.10;8.55;;;;;;;11.95;40.15;100339.00;4964687;28;20510;-83
2021/04/28 08:16:27;;;;;;;13.68;9.00;;;;;;;11.98;38.29;100336.22;4985986;28;20046;-82
2021/04/28 08:18:53;;;;;;;12.07;9.05;;;;;;;11.60;39.13;100339.13;4994804;28;20042;-81
2021/04/28 08:21:19;;;;;;;13.10;7.70;;;;;;;11.62;39.14;100329.41;4973177;28;20078;-82
2021/04/28 08:23:46;;;;;;;13.68;9.23;;;;;;;11.83;39.15;100339.34;4988657;28;20046;-82
2021/04/28 08:26:13;;;;;;;14.77;9.55;;;;;;;11.81;38.41;100331.47;4975217;28;20046;-82
2021/04/28 08:28:43;;;;;;;53.03;11.73;;;;;;;11.80;39.82;100318.28;4990700;28;20049;-82
2021/04/28 08:31:11;;;;;;;14.40;9.23;;;;;;;12.03;38.02;100329.03;4973729;28;20042;-81
2021/04/28 08:33:38;;;;;;;12.23;8.63;;;;;;;12.06;38.66;100322.75;4956782;28;20038;-82
2021/04/28 08:36:06;;;;;;;11.73;9.10;;;;;;;11.71;37.60;100324.69;4975615;28;20184;-81
2021/04/28 08:38:34;;;;;;;13.00;9.25;;;;;;;12.16;38.95;100326.84;4977484;28;20056;-81
2021/04/28 08:41:00;;;;;;;10.88;7.80;;;;;;;12.47;39.14;100324.06;4973968;28;20110;-83
2021/04/28 08:43:27;;;;;;;12.70;9.40;;;;;;;12.84;37.73;100325.44;4980276;28;20050;-81
2021/04/28 08:45:57;;;;;;;12.32;8.80;;;;;;;12.91;38.54;100317.22;4956522;28;20050;-83
2021/04/28 08:48:24;;;;;;;13.55;8.45;;;;;;;12.85;36.50;100314.75;4965977;28;20053;-81
2021/04/28 08:50:50;;;;;;;9.90;7.97;;;;;;;13.26;37.35;100317.75;4974849;28;20034;-82
2021/04/28 08:53:17;;;;;;;11.13;8.18;;;;;;;13.46;36.07;100314.38;4982761;28;20054;-83
2021/04/28 08:55:44;;;;;;;12.60;8.43;;;;;;;13.59;35.81;100305.00;4976467;28;20042;-83
2021/04/28 08:58:12;;;;;;;12.85;8.38;;;;;;;13.69;34.90;100300.19;4959817;28;20061;-83
2021/04/28 09:00:39;;;;;;;10.63;7.53;;;;;;;14.00;36.14;100302.50;4974902;28;20042;-83
2021/04/28 09:03:06;;;;;;;12.07;8.75;;;;;;;13.68;34.17;100299.31;4957921;28;20057;-83
2021/04/28 09:05:34;;;;;;;14.25;8.82;;;;;;;13.56;33.81;100306.91;4959631;28;20042;-82
2021/04/28 09:08:01;;;;;;;12.05;7.38;;;;;;;13.73;35.80;100294.72;4985041;28;20043;-82
2021/04/28 09:10:29;;;;;;;9.45;8.10;;;;;;;14.16;34.26;100287.69;4975711;28;20439;-83
2021/04/28 09:13:09;;;;;;;14.55;8.55;;;;;;;14.14;32.74;100292.19;4993674;28;20038;-83
2021/04/28 09:15:40;;;;;;;12.68;7.97;;;;;;;14.60;33.75;100287.63;4975536;28;20490;-84
2021/04/28 09:18:08;;;;;;;9.73;6.50;;;;;;;14.47;28.43;100281.13;4965869;28;20053;-82
2021/04/28 09:20:38;;;;;;;9.60;6.50;;;;;;;14.96;30.52;100277.16;4978897;28;20038;-84
2021/04/28 09:23:11;;;;;;;9.60;6.95;;;;;;;15.33;29.36;100275.53;4982986;28;20069;-84
2021/04/28 09:25:42;;;;;;;;;;;;;;;15.44;27.18;100276.75;4980408;28;20060;-84
2021/04/28 09:28:24;;;;;;;29.90;8.38;;;;;;;15.75;29.22;100268.22;4977647;28;19989;-84
2021/04/28 09:30:50;;;;;;;8.13;7.10;;;;;;;15.76;28.29;100261.94;4953925;28;20039;-84
2021/04/28 09:33:17;;;;;;;8.15;6.55;;;;;;;15.88;27.58;100275.59;4981331;28;20073;-84
2021/04/28 09:35:43;;;;;;;9.15;6.78;;;;;;;15.50;28.37;100275.59;4947414;28;20046;-83
2021/04/28 09:38:10;;;;;;;7.53;6.78;;;;;;;15.40;28.35;100271.66;4973813;28;20449;-84
2021/04/28 09:40:44;;;;;;;9.95;7.43;;;;;;;15.81;28.71;100261.72;4991450;28;20399;-84
2021/04/28 09:43:11;;;;;;;10.27;6.18;;;;;;;15.85;27.25;100262.44;4964561;28;20050;-84
2021/04/28 09:45:51;;;;;;;8.65;5.97;;;;;;;15.72;27.36;100255.06;4975861;28;20753;-83
2021/04/28 09:48:25;;;;;;;9.77;5.88;;;;;;;15.98;27.95;100256.44;4988225;28;20050;-85
2021/04/28 09:51:08;;;;;;;7.43;5.95;;;;;;;16.33;27.22;100256.50;4993894;28;20089;-85
2021/04/28 09:53:34;;;;;;;8.85;6.35;;;;;;;16.23;27.64;100253.44;4976701;28;20054;-85
2021/04/28 09:56:01;;;;;;;8.95;6.25;;;;;;;16.03;29.09;100253.53;4993868;28;20042;-84
2021/04/28 09:58:46;;;;;;;7.72;6.35;;;;;;;16.31;28.51;100251.25;4977147;28;20042;-84
2021/04/28 10:01:14;;;;;;;10.95;7.22;;;;;;;16.44;29.18;100229.25;4976966;28;20052;-84
2021/04/28 10:03:44;;;;;;;8.80;7.38;;;;;;;16.46;28.76;100240.72;4973748;28;20089;-83
2021/04/28 10:06:11;;;;;;;11.00;7.03;;;;;;;15.54;27.48;100231.03;4946008;28;20102;-84
2021/04/28 10:08:37;;;;;;;9.23;6.53;;;;;;;15.60;25.10;100230.75;4992300;28;20054;-83
2021/04/28 10:11:04;;;;;;;8.43;6.80;;;;;;;15.85;27.31;100225.13;4961206;28;20062;-84
2021/04/28 10:13:30;;;;;;;7.55;6.28;;;;;;;15.91;26.10;100224.84;4982262;28;20053;-84
2021/04/28 10:16:13;;;;;;;7.93;6.07;;;;;;;15.64;25.94;100230.59;4978627;28;20062;-84
2021/04/28 10:18:39;;;;;;;13.88;6.88;;;;;;;15.76;24.54;100219.31;4955145;28;20047;-84
2021/04/28 10:21:05;;;;;;;8.90;6.50;;;;;;;16.23;27.38;100228.56;4952114;28;20049;-84
2021/04/28 10:23:32;;;;;;;9.23;6.93;;;;;;;16.50;25.44;100224.50;4979518;28;20047;-84
2021/04/28 10:25:58;;;;;;;10.77;7.20;;;;;;;16.72;23.58;100220.72;4977262;28;20054;-83
2021/04/28 10:28:24;;;;;;;9.15;7.00;;;;;;;16.02;25.33;100217.19;4963391;28;20120;-82
2021/04/28 10:30:51;;;;;;;10.98;7.60;;;;;;;16.10;25.49;100214.13;4977444;28;20042;-85
2021/04/28 10:33:26;;;;;;;9.77;6.68;;;;;;;16.23;25.02;100216.09;4961437;28;20049;-84
2021/04/28 10:35:53;;;;;;;9.52;7.20;;;;;;;16.05;25.77;100217.00;4987978;28;20039;-83
2021/04/28 10:38:26;;;;;;;7.80;6.47;;;;;;;16.56;27.88;100208.19;4980814;28;20166;-83
2021/04/28 10:40:53;;;;;;;11.25;7.10;;;;;;;17.01;26.00;100216.50;4977058;28;20106;-84
2021/04/28 10:43:20;;;;;;;11.05;7.55;;;;;;;17.31;25.14;100206.81;4962538;28;20070;-84
2021/04/28 10:45:48;;;;;;;9.27;7.15;;;;;;;17.54;26.20;100207.34;4960719;28;20047;-85
2021/04/28 10:48:40;;;;;;;11.82;8.18;;;;;;;17.30;26.60;100213.09;4967899;28;20054;-84
2021/04/28 10:51:07;;;;;;;10.93;8.30;;;;;;;17.31;28.17;100195.25;4960353;28;20093;-83
2021/04/28 10:53:33;;;;;;;11.23;8.65;;;;;;;17.13;27.18;100206.00;4975690;28;20074;-84
2021/04/28 10:56:13;;;;;;;11.27;8.23;;;;;;;17.60;28.41;100212.34;5006062;28;20042;-84
2021/04/28 10:58:46;;;;;;;11.50;9.27;;;;;;;17.02;25.77;100204.88;4962256;28;20034;-84
2021/04/28 11:01:17;;;;;;;12.88;9.15;;;;;;;16.92;27.88;100187.66;4976681;28;20073;-85
2021/04/28 11:03:48;;;;;;;11.57;8.35;;;;;;;16.47;28.32;100207.75;4976685;28;20051;-85
2021/04/28 11:06:23;;;;;;;23.55;10.48;;;;;;;16.88;28.91;100194.94;4982664;28;20077;-85
2021/04/28 11:08:49;;;;;;;14.48;9.65;;;;;;;16.96;27.39;100199.88;4993310;28;20141;-84
2021/04/28 11:11:35;;;;;;;12.07;9.00;;;;;;;17.22;28.90;100193.09;4981374;28;20250;-86
2021/04/28 11:14:10;;;;;;;12.30;9.10;;;;;;;17.39;29.04;100187.69;4980533;28;20042;-85
2021/04/28 11:17:23;;;;;;;11.40;9.23;;;;;;;17.81;29.29;100189.75;4995228;28;20140;-86
2021/04/28 11:19:51;;;;;;;14.35;10.13;;;;;;;17.81;27.36;100191.56;4975490;28;20062;-84
2021/04/28 11:22:20;;;;;;;12.82;8.70;;;;;;;18.10;28.59;100189.88;4972034;28;20499;-84
2021/04/28 11:24:52;;;;;;;12.05;9.20;;;;;;;17.99;27.93;100186.03;4986596;28;20053;-84
2021/04/28 11:27:43;;;;;;;15.55;9.77;;;;;;;17.37;26.89;100174.44;4960491;28;20046;-82
2021/04/28 11:30:38;;;;;;;11.95;8.75;;;;;;;17.07;27.80;100171.66;4954954;28;20069;-82
2021/04/28 11:33:08;;;;;;;12.85;10.02;;;;;;;17.50;28.21;100181.75;4975568;28;20187;-82
2021/04/28 11:35:35;;;;;;;12.55;9.50;;;;;;;17.29;28.00;100173.13;4975571;28;20046;-83